Time;durP1;ratioP1;P1;durP2;ratioP2;P2;SDS_P1;SDS_P2;PMS_P1;PMS_P2;Temp;Humidity;BMP_temperature;BMP_pressure;BME280_temperature;BME280_humidity;BME280_pressure;Samples;Min_cycle;Max_cycle;Signal;HPM_P1;HPM_P2
2021/10/01 00:01:09;;;;;;;6.85;1.20;;;12.20;99.90;;;;;;4165783;28;20172;-87
2021/10/01 00:03:10;;;;;;;3.25;1.20;;;12.30;99.90;;;;;;4165450;28;20246;-90
2021/10/01 00:05:11;;;;;;;7.22;1.50;;;12.40;99.90;;;;;;4165749;28;20180;-86
2021/10/01 00:07:11;;;;;;;8.43;1.50;;;12.50;99.90;;;;;;4165810;28;20212;-90
2021/10/01 00:09:12;;;;;;;4.72;1.02;;;12.50;99.90;;;;;;4165786;28;20243;-89
2021/10/01 00:11:13;;;;;;;5.80;1.42;;;12.50;99.90;;;;;;4165645;28;20177;-90
2021/10/01 00:13:14;;;;;;;7.90;1.52;;;12.50;99.90;;;;;;4181841;28;20546;-86
2021/10/01 00:15:14;;;;;;;10.55;1.63;;;12.40;99.90;;;;;;4165550;28;20203;-87
2021/10/01 00:17:16;;;;;;;4.88;1.40;;;12.40;99.90;;;;;;4165639;28;20595;-88
2021/10/01 00:19:17;;;;;;;6.78;1.70;;;12.40;99.90;;;;;;4165357;28;20250;-87
2021/10/01 00:21:18;;;;;;;7.68;1.88;;;12.50;99.90;;;;;;4165515;28;20168;-87
2021/10/01 00:23:19;;;;;;;7.70;2.00;;;12.50;99.90;;;;;;4181850;28;20179;-86
2021/10/01 00:25:20;;;;;;;6.68;1.85;;;12.40;99.90;;;;;;4181822;28;20647;-86
2021/10/01 00:27:20;;;;;;;6.03;2.08;;;12.40;99.90;;;;;;4181634;28;20215;-86
2021/10/01 00:29:21;;;;;;;6.28;1.70;;;12.40;99.90;;;;;;4181792;28;20160;-86
2021/10/01 00:31:22;;;;;;;6.25;1.88;;;12.40;99.90;;;;;;4165515;28;20183;-87
2021/10/01 00:33:23;;;;;;;6.95;1.73;;;12.40;99.90;;;;;;4165277;28;20168;-86
2021/10/01 00:35:24;;;;;;;5.90;1.77;;;12.40;99.90;;;;;;4165414;28;20187;-88
2021/10/01 00:37:25;;;;;;;7.18;1.63;;;12.30;99.90;;;;;;4181944;28;20191;-86
2021/10/01 00:39:26;;;;;;;10.93;2.00;;;12.40;99.90;;;;;;4165300;28;20172;-87
2021/10/01 00:41:27;;;;;;;6.75;1.88;;;12.40;99.90;;;;;;4181628;28;20164;-87
2021/10/01 00:43:28;;;;;;;7.30;2.47;;;12.40;99.90;;;;;;4181406;28;20659;-87
2021/10/01 00:45:29;;;;;;;6.80;2.88;;;12.40;99.90;;;;;;4165163;28;20168;-86
2021/10/01 00:47:30;;;;;;;10.32;3.10;;;12.30;99.90;;;;;;4165362;28;20220;-87
2021/10/01 00:49:31;;;;;;;7.25;3.22;;;12.20;99.90;;;;;;4165332;28;20178;-86
2021/10/01 00:51:35;;;;;;;8.90;3.88;;;12.30;99.90;;;;;;4165268;28;20176;-86
2021/10/01 00:53:36;;;;;;;11.98;4.25;;;12.30;99.90;;;;;;4165441;28;20164;-87
2021/10/01 00:55:37;;;;;;;11.73;4.10;;;12.30;99.90;;;;;;4165020;28;20172;-86
2021/10/01 00:57:38;;;;;;;10.30;4.13;;;12.10;99.90;;;;;;4164685;28;20223;-86
2021/10/01 00:59:38;;;;;;;12.10;4.30;;;12.10;99.90;;;;;;4165060;28;20211;-86
2021/10/01 01:01:39;;;;;;;10.13;4.65;;;12.10;99.90;;;;;;4164986;28;20160;-86
2021/10/01 01:03:51;;;;;;;12.88;4.15;;;12.10;99.90;;;;;;4181241;28;20183;-88
2021/10/01 01:06:12;;;;;;;8.18;4.28;;;12.00;99.90;;;;;;4164762;28;20358;-87
2021/10/01 01:08:20;;;;;;;9.30;3.83;;;12.00;99.90;;;;;;4181298;28;20231;-91
2021/10/01 01:10:56;;;;;;;17.80;4.38;;;12.00;99.90;;;;;;4164996;28;20226;-87
2021/10/01 01:13:07;;;;;;;11.48;3.90;;;11.90;99.90;;;;;;4162130;28;20274;-86
2021/10/01 01:15:21;;;;;;;10.52;3.88;;;11.90;99.90;;;;;;4164467;28;20263;-86
2021/10/01 01:17:52;;;;;;;10.55;3.65;;;11.90;99.90;;;;;;4181309;28;20249;-87
2021/10/01 01:20:08;;;;;;;9.55;3.50;;;11.90;99.90;;;;;;4197976;28;20170;-87
2021/10/01 01:22:27;;;;;;;8.23;3.63;;;11.90;99.90;;;;;;4164759;28;20230;-87
2021/10/01 01:25:00;;;;;;;9.90;3.50;;;11.90;99.90;;;;;;4181154;28;20171;-87
2021/10/01 01:27:31;;;;;;;7.80;2.90;;;12.00;99.90;;;;;;4181013;28;20211;-86
2021/10/01 01:29:51;;;;;;;6.60;2.78;;;12.00;99.90;;;;;;4181155;28;20199;-87
2021/10/01 01:31:55;;;;;;;11.00;2.72;;;12.10;99.90;;;;;;4164768;28;20190;-87
2021/10/01 01:34:00;;;;;;;11.07;2.67;;;12.10;99.90;;;;;;4182124;28;20237;-89
2021/10/01 01:36:02;;;;;;;6.45;2.40;;;12.20;99.90;;;;;;4182326;28;20171;-87
2021/10/01 01:38:36;;;;;;;9.25;2.08;;;12.30;99.90;;;;;;4180957;28;20200;-88
2021/10/01 01:40:38;;;;;;;7.57;1.90;;;12.30;99.90;;;;;;4171969;28;20222;-88
2021/10/01 01:42:42;;;;;;;7.15;1.77;;;12.30;99.90;;;;;;4180711;28;20282;-87
2021/10/01 01:44:43;;;;;;;7.05;2.25;;;12.30;99.90;;;;;;4164394;28;20168;-88
2021/10/01 01:46:44;;;;;;;7.78;1.75;;;12.20;99.90;;;;;;4180748;28;20695;-86
2021/10/01 01:48:47;;;;;;;6.70;2.00;;;12.20;99.90;;;;;;4164325;28;20176;-88
2021/10/01 01:50:49;;;;;;;5.70;1.70;;;12.20;99.90;;;;;;4181099;28;20175;-86
2021/10/01 01:52:51;;;;;;;7.05;1.60;;;12.20;99.90;;;;;;4181153;28;20560;-88
2021/10/01 01:54:54;;;;;;;5.47;1.65;;;12.30;99.90;;;;;;4181055;28;20164;-87
2021/10/01 01:56:56;;;;;;;7.15;1.73;;;12.20;99.90;;;;;;4164499;28;20706;-88
2021/10/01 01:58:59;;;;;;;8.57;2.05;;;12.20;99.90;;;;;;4164358;28;20203;-86
2021/10/01 02:01:15;;;;;;;5.75;1.50;;;12.20;99.90;;;;;;4181054;28;20202;-87
2021/10/01 02:03:38;;;;;;;6.53;1.80;;;12.10;99.90;;;;;;4167602;28;20231;-92
2021/10/01 02:05:49;;;;;;;6.75;1.83;;;12.00;99.90;;;;;;4180799;28;20650;-88
2021/10/01 02:07:53;;;;;;;8.13;1.80;;;12.00;99.90;;;;;;4180486;28;20229;-86
2021/10/01 02:09:54;;;;;;;7.50;1.95;;;11.90;99.90;;;;;;4164405;28;20687;-86
2021/10/01 02:11:55;;;;;;;10.60;1.90;;;11.90;99.90;;;;;;4180814;28;20167;-86
2021/10/01 02:13:58;;;;;;;5.70;1.80;;;11.80;99.90;;;;;;4164442;28;20664;-87
2021/10/01 02:16:01;;;;;;;4.18;1.60;;;11.80;99.90;;;;;;4164394;28;20227;-87
2021/10/01 02:18:04;;;;;;;8.77;1.55;;;11.80;99.90;;;;;;4164282;28;20751;-87
2021/10/01 02:20:06;;;;;;;6.03;1.92;;;11.80;99.90;;;;;;4164325;28;20675;-86
2021/10/01 02:22:09;;;;;;;7.40;1.90;;;11.70;99.90;;;;;;4164382;28;20191;-87
2021/10/01 02:24:13;;;;;;;5.47;1.60;;;11.80;99.90;;;;;;4164279;28;20171;-87
2021/10/01 02:26:35;;;;;;;9.77;1.70;;;11.70;99.90;;;;;;4163912;28;20204;-88
2021/10/01 02:28:42;;;;;;;7.28;1.60;;;11.70;99.90;;;;;;4167145;28;20216;-86
2021/10/01 02:30:44;;;;;;;6.75;1.65;;;11.70;99.90;;;;;;4167394;28;20167;-86
2021/10/01 02:32:56;;;;;;;8.55;1.60;;;11.70;99.90;;;;;;4167264;28;20199;-87
2021/10/01 02:34:58;;;;;;;6.93;1.77;;;11.70;99.90;;;;;;4167196;28;20771;-86
2021/10/01 02:37:00;;;;;;;8.63;1.80;;;11.80;99.90;;;;;;4183623;28;20606;-87
2021/10/01 02:39:02;;;;;;;5.88;1.50;;;11.70;99.90;;;;;;4167241;28;20656;-86
2021/10/01 02:41:04;;;;;;;4.35;1.60;;;11.70;99.90;;;;;;4167297;28;20164;-87
2021/10/01 02:43:05;;;;;;;5.82;1.65;;;11.70;99.90;;;;;;4167217;28;20267;-87
2021/10/01 02:45:07;;;;;;;7.50;1.90;;;11.70;99.90;;;;;;4166983;28;20169;-87
2021/10/01 02:47:13;;;;;;;4.63;1.55;;;11.70;99.90;;;;;;4167246;28;20226;-87
2021/10/01 02:49:14;;;;;;;4.30;1.40;;;11.70;99.90;;;;;;4167090;28;20587;-86
2021/10/01 02:51:20;;;;;;;4.72;1.13;;;11.60;99.90;;;;;;4167169;28;20172;-87
2021/10/01 02:53:31;;;;;;;6.53;1.40;;;11.60;99.90;;;;;;4167446;28;20171;-86
2021/10/01 02:55:50;;;;;;;5.20;1.38;;;11.70;99.90;;;;;;4167017;28;20659;-86
2021/10/01 02:58:23;;;;;;;3.67;1.13;;;11.70;99.90;;;;;;4182932;28;20206;-87
2021/10/01 03:00:23;;;;;;;7.32;1.10;;;11.60;99.90;;;;;;4164063;28;20184;-87
2021/10/01 03:02:24;;;;;;;7.63;1.65;;;11.60;99.90;;;;;;4167036;28;20182;-86
2021/10/01 03:04:27;;;;;;;8.07;1.40;;;11.50;99.90;;;;;;4183145;28;20190;-86
2021/10/01 03:06:32;;;;;;;4.55;1.42;;;11.60;99.90;;;;;;4166515;28;20290;-86
2021/10/01 03:08:34;;;;;;;11.18;1.40;;;11.60;99.90;;;;;;4166810;28;20632;-86
2021/10/01 03:10:38;;;;;;;6.63;1.20;;;11.50;99.90;;;;;;4166819;28;20259;-87
2021/10/01 03:12:41;;;;;;;4.13;1.10;;;11.50;99.90;;;;;;4182937;28;20210;-87
2021/10/01 03:14:43;;;;;;;5.15;1.15;;;11.40;99.90;;;;;;4166530;28;20164;-87
2021/10/01 03:16:45;;;;;;;5.38;1.15;;;11.40;99.90;;;;;;4166618;28;20172;-86
2021/10/01 03:18:47;;;;;;;6.60;1.17;;;11.40;99.90;;;;;;4166408;28;20173;-87
2021/10/01 03:20:49;;;;;;;7.35;1.10;;;11.40;99.90;;;;;;4166458;28;20210;-85
2021/10/01 03:22:50;;;;;;;4.80;1.20;;;11.40;99.90;;;;;;4182813;28;20176;-87
2021/10/01 03:24:53;;;;;;;7.45;1.25;;;11.40;99.90;;;;;;4166339;28;20532;-87
2021/10/01 03:26:54;;;;;;;5.70;0.90;;;11.50;99.90;;;;;;4166232;28;20211;-87
2021/10/01 03:28:55;;;;;;;3.88;1.10;;;11.50;99.90;;;;;;4166478;28;20176;-87
2021/10/01 03:30:56;;;;;;;11.95;1.25;;;11.50;99.90;;;;;;4166485;28;20248;-87
2021/10/01 03:32:57;;;;;;;4.53;1.08;;;11.50;99.90;;;;;;4166170;28;20176;-86
2021/10/01 03:35:02;;;;;;;6.13;1.10;;;11.50;99.90;;;;;;4182854;28;20167;-86
2021/10/01 03:37:03;;;;;;;8.10;1.25;;;11.40;99.90;;;;;;4166197;28;20203;-87
2021/10/01 03:39:05;;;;;;;6.10;1.08;;;11.40;99.90;;;;;;4165958;28;20255;-86
2021/10/01 03:41:07;;;;;;;6.43;0.95;;;11.50;99.90;;;;;;4166525;28;20572;-87
2021/10/01 03:43:12;;;;;;;7.47;1.38;;;11.50;99.90;;;;;;4166106;28;20172;-87
2021/10/01 03:45:14;;;;;;;6.30;0.80;;;11.50;99.90;;;;;;4199024;28;20178;-86
2021/10/01 03:47:15;;;;;;;10.50;1.30;;;11.40;99.90;;;;;;4165786;28;20208;-87
2021/10/01 03:49:16;;;;;;;2.88;1.00;;;11.40;99.90;;;;;;4165869;28;20176;-87
2021/10/01 03:51:17;;;;;;;5.75;0.93;;;11.40;99.90;;;;;;4166293;28;20176;-87
2021/10/01 03:53:18;;;;;;;5.13;1.27;;;11.40;99.90;;;;;;4166184;28;20172;-90
2021/10/01 03:55:21;;;;;;;4.65;1.10;;;11.40;99.90;;;;;;4166179;28;20179;-87
2021/10/01 03:57:23;;;;;;;6.85;1.33;;;11.30;99.90;;;;;;4166167;28;20193;-87
2021/10/01 03:59:25;;;;;;;3.58;1.08;;;11.40;99.90;;;;;;4165977;28;20178;-87
2021/10/01 04:01:26;;;;;;;6.75;1.20;;;11.30;99.90;;;;;;4166037;28;20604;-87
2021/10/01 04:03:27;;;;;;;7.63;1.38;;;11.40;99.90;;;;;;4182455;28;20190;-87
2021/10/01 04:05:30;;;;;;;6.03;1.30;;;11.40;99.90;;;;;;4182176;28;20336;-86
2021/10/01 04:07:31;;;;;;;8.07;1.83;;;11.50;99.90;;;;;;4181984;28;20207;-87
2021/10/01 04:09:32;;;;;;;5.65;1.70;;;11.40;99.90;;;;;;4165771;28;20259;-85
2021/10/01 04:11:37;;;;;;;3.47;1.65;;;11.50;99.90;;;;;;4182160;28;20229;-88
2021/10/01 04:13:39;;;;;;;4.40;2.10;;;11.40;99.90;;;;;;4165662;28;20172;-87
2021/10/01 04:15:40;;;;;;;6.93;2.20;;;11.40;99.90;;;;;;4165792;28;20195;-88
2021/10/01 04:17:41;;;;;;;7.68;2.20;;;11.50;99.90;;;;;;4165311;28;20650;-87
2021/10/01 04:19:43;;;;;;;9.50;2.33;;;11.50;99.90;;;;;;4165686;28;20647;-87
2021/10/01 04:21:45;;;;;;;6.63;2.15;;;11.40;99.90;;;;;;4182054;28;20590;-87
2021/10/01 04:23:46;;;;;;;9.68;2.40;;;11.40;99.90;;;;;;4182038;28;20179;-88
2021/10/01 04:26:17;;;;;;;8.75;2.67;;;11.30;99.90;;;;;;4173215;28;20211;-87
2021/10/01 04:28:18;;;;;;;8.93;2.08;;;11.30;99.90;;;;;;4181793;28;20788;-86
2021/10/01 04:30:19;;;;;;;9.82;2.72;;;11.30;99.90;;;;;;4165390;28;20168;-86
2021/10/01 04:32:19;;;;;;;8.35;2.45;;;11.40;99.90;;;;;;4165440;28;20520;-89
2021/10/01 04:34:21;;;;;;;8.25;1.98;;;11.40;99.90;;;;;;4181601;28;20171;-87
2021/10/01 04:36:22;;;;;;;6.30;2.28;;;11.30;99.90;;;;;;4165402;28;20190;-86
2021/10/01 04:38:24;;;;;;;7.88;2.45;;;11.30;99.90;;;;;;4165246;28;20188;-87
2021/10/01 04:40:26;;;;;;;11.97;2.63;;;11.30;99.90;;;;;;4165305;28;20207;-87
2021/10/01 04:42:27;;;;;;;11.83;2.57;;;11.30;99.90;;;;;;4165353;28;20172;-87
2021/10/01 04:44:28;;;;;;;5.65;2.40;;;11.30;99.90;;;;;;4181870;28;20195;-88
2021/10/01 04:46:29;;;;;;;4.93;1.75;;;11.30;99.90;;;;;;4181358;28;20207;-87
2021/10/01 04:48:30;;;;;;;8.27;1.75;;;11.30;99.90;;;;;;4164970;28;20176;-88
2021/10/01 04:50:33;;;;;;;6.63;2.27;;;11.30;99.90;;;;;;4180934;28;20647;-88
2021/10/01 04:52:34;;;;;;;7.88;2.00;;;11.30;99.90;;;;;;4181677;28;20179;-89
2021/10/01 04:54:35;;;;;;;8.23;2.65;;;11.20;99.90;;;;;;4181781;28;20167;-89
2021/10/01 04:56:36;;;;;;;7.55;2.20;;;11.30;99.90;;;;;;4165333;28;20219;-89
2021/10/01 04:58:37;;;;;;;4.85;1.85;;;11.20;99.90;;;;;;4164998;28;20165;-87
2021/10/01 05:01:01;;;;;;;5.77;2.13;;;11.20;99.90;;;;;;4182001;28;20182;-86
2021/10/01 05:03:22;;;;;;;15.23;2.45;;;11.20;99.90;;;;;;4155371;28;20182;-86
2021/10/01 05:05:43;;;;;;;14.77;2.20;;;11.20;99.90;;;;;;4184648;28;20179;-88
2021/10/01 05:08:03;;;;;;;7.93;2.30;;;11.30;99.90;;;;;;4195902;28;20206;-88
2021/10/01 05:10:22;;;;;;;8.03;2.37;;;11.30;99.90;;;;;;4195530;28;20267;-87
2021/10/01 05:12:43;;;;;;;11.13;1.97;;;11.40;99.90;;;;;;4182315;28;20213;-87
2021/10/01 05:15:04;;;;;;;5.88;1.88;;;11.40;99.90;;;;;;4181515;28;20289;-87
2021/10/01 05:17:23;;;;;;;6.88;2.25;;;11.40;99.90;;;;;;4195812;28;20278;-87
2021/10/01 05:19:42;;;;;;;8.13;2.28;;;11.40;99.90;;;;;;4182410;28;20666;-87
2021/10/01 05:22:02;;;;;;;7.53;2.23;;;11.40;99.90;;;;;;4195795;28;20312;-87
2021/10/01 05:24:03;;;;;;;9.75;2.20;;;11.40;99.90;;;;;;4181340;28;20214;-88
2021/10/01 05:26:04;;;;;;;14.80;2.97;;;11.50;99.90;;;;;;4164906;28;20297;-89
2021/10/01 05:28:05;;;;;;;9.93;2.50;;;11.60;99.90;;;;;;4164515;28;20192;-89
2021/10/01 05:30:07;;;;;;;7.82;2.67;;;11.60;99.90;;;;;;4181187;28;20254;-88
2021/10/01 05:32:07;;;;;;;11.63;2.97;;;11.50;99.90;;;;;;4181390;28;20635;-88
2021/10/01 05:34:09;;;;;;;11.02;2.88;;;11.60;99.90;;;;;;4164698;28;20179;-90
2021/10/01 05:36:10;;;;;;;17.45;3.15;;;11.60;99.90;;;;;;4164559;28;20644;-88
2021/10/01 05:38:12;;;;;;;10.80;3.05;;;11.50;99.90;;;;;;4164475;28;20191;-89
2021/10/01 05:40:15;;;;;;;9.00;2.80;;;11.50;99.90;;;;;;4197675;28;20178;-89
2021/10/01 05:42:16;;;;;;;13.60;3.75;;;11.60;99.90;;;;;;4181127;28;20633;-89
2021/10/01 05:44:17;;;;;;;11.50;2.93;;;11.50;99.90;;;;;;4164866;28;20222;-91
2021/10/01 05:46:19;;;;;;;9.50;3.28;;;11.50;99.90;;;;;;4180804;28;20234;-89
2021/10/01 05:48:43;;;;;;;12.90;3.40;;;11.50;99.90;;;;;;4140766;28;20186;-91
2021/10/01 05:51:08;;;;;;;12.15;2.67;;;11.60;99.90;;;;;;4195601;28;20301;-90
2021/10/01 05:56:03;;;;;;;7.53;2.83;;;11.60;99.90;;;;;;4181929;28;20209;-89
2021/10/01 05:58:22;;;;;;;10.30;2.90;;;11.80;99.90;;;;;;4195445;28;20243;-89
2021/10/01 06:00:27;;;;;;;14.60;3.38;;;11.70;99.90;;;;;;4181192;28;20191;-89
2021/10/01 06:02:28;;;;;;;10.20;3.53;;;11.60;99.90;;;;;;4167756;28;20164;-88
2021/10/01 06:04:30;;;;;;;11.35;3.65;;;11.60;99.90;;;;;;4167825;28;20188;-87
2021/10/01 06:06:30;;;;;;;8.57;3.25;;;11.60;99.90;;;;;;4167746;28;20207;-89
2021/10/01 06:08:32;;;;;;;28.85;3.70;;;11.70;99.90;;;;;;4168184;28;20168;-91
2021/10/01 06:10:32;;;;;;;13.05;3.40;;;11.70;99.90;;;;;;4184678;28;20207;-89
2021/10/01 06:12:34;;;;;;;14.10;4.03;;;11.70;99.90;;;;;;4167525;28;20212;-87
2021/10/01 06:14:36;;;;;;;11.85;3.55;;;11.80;99.90;;;;;;4167495;28;20180;-89
2021/10/01 06:16:37;;;;;;;11.55;3.55;;;11.90;99.90;;;;;;4167738;28;20614;-89
2021/10/01 06:18:37;;;;;;;13.18;3.78;;;11.80;99.90;;;;;;4167669;28;20172;-89
2021/10/01 06:20:38;;;;;;;15.25;4.32;;;11.80;99.90;;;;;;4167721;28;20176;-90
2021/10/01 06:22:39;;;;;;;15.55;3.17;;;11.90;99.90;;;;;;4167682;28;20172;-90
2021/10/01 06:24:40;;;;;;;12.70;3.83;;;11.70;99.90;;;;;;4167702;28;20169;-87
2021/10/01 06:26:41;;;;;;;15.75;4.20;;;11.80;99.90;;;;;;4167396;28;20208;-89
2021/10/01 06:28:42;;;;;;;15.55;4.28;;;11.70;99.90;;;;;;4167463;28;20189;-87
2021/10/01 06:30:43;;;;;;;14.38;4.20;;;11.80;99.90;;;;;;4167369;28;20264;-91
2021/10/01 06:32:44;;;;;;;15.30;4.95;;;11.70;99.90;;;;;;4167499;28;20243;-89
2021/10/01 06:34:45;;;;;;;13.25;5.65;;;11.80;99.90;;;;;;4167357;28;20172;-88
2021/10/01 06:36:46;;;;;;;19.55;6.25;;;12.00;99.90;;;;;;4167238;28;20215;-88
2021/10/01 06:38:47;;;;;;;21.10;6.50;;;12.10;99.90;;;;;;4167094;28;20258;-88
2021/10/01 06:40:48;;;;;;;21.55;6.63;;;12.20;99.90;;;;;;4167359;28;20242;-90
2021/10/01 06:42:50;;;;;;;25.17;8.45;;;12.30;99.90;;;;;;4167170;28;20172;-89
2021/10/01 06:44:53;;;;;;;19.67;7.40;;;12.40;99.90;;;;;;4167205;28;20210;-88
2021/10/01 06:47:05;;;;;;;24.00;8.07;;;12.40;99.90;;;;;;4166889;28;20199;-88
2021/10/01 07:21:11;;;;;;;10.07;3.67;;;12.90;99.90;;;;;;4200174;28;20195;-90
2021/10/01 08:19:22;;;;;;;11.02;3.22;;;14.40;99.90;;;;;;4198573;28;20166;-91
2021/10/01 08:21:26;;;;;;;13.50;3.28;;;14.40;99.90;;;;;;4165805;28;20180;-92
2021/10/01 08:23:27;;;;;;;10.82;3.38;;;14.30;99.90;;;;;;4165564;28;20250;-91
2021/10/01 08:25:28;;;;;;;15.35;3.67;;;14.50;99.90;;;;;;4165659;28;20176;-88
2021/10/01 08:27:30;;;;;;;11.38;4.55;;;14.60;99.90;;;;;;4165442;28;20230;-90
2021/10/01 08:29:33;;;;;;;12.48;3.25;;;14.70;99.90;;;;;;4182017;28;20179;-90
2021/10/01 08:31:34;;;;;;;14.60;4.10;;;14.80;99.90;;;;;;4182022;28;20650;-91
2021/10/01 08:33:34;;;;;;;14.35;3.95;;;15.10;99.90;;;;;;4165792;28;20173;-87
2021/10/01 08:35:36;;;;;;;12.68;3.83;;;15.10;99.90;;;;;;4165483;28;20518;-89
2021/10/01 08:37:37;;;;;;;10.93;3.50;;;15.00;99.90;;;;;;4181780;28;20687;-89
2021/10/01 08:39:38;;;;;;;10.55;3.67;;;15.10;99.90;;;;;;4182025;28;20234;-91
2021/10/01 08:41:43;;;;;;;12.15;3.20;;;15.00;99.90;;;;;;4165742;28;20294;-90
2021/10/01 08:43:44;;;;;;;7.75;3.47;;;15.00;99.90;;;;;;4165244;28;20168;-89
2021/10/01 08:45:46;;;;;;;16.23;3.75;;;15.00;99.90;;;;;;4165379;28;20572;-90
2021/10/01 08:47:48;;;;;;;8.18;3.10;;;15.20;99.90;;;;;;4165146;28;20236;-89
2021/10/01 08:49:50;;;;;;;11.30;3.40;;;15.20;99.90;;;;;;4165150;28;20652;-89
2021/10/01 08:51:52;;;;;;;11.23;3.35;;;15.20;99.90;;;;;;4165288;28;20176;-91
2021/10/01 08:53:55;;;;;;;15.52;3.85;;;15.10;99.90;;;;;;4165074;28;20283;-90
2021/10/01 08:55:56;;;;;;;12.45;2.88;;;15.10;99.90;;;;;;4165006;28;20255;-90
2021/10/01 08:57:57;;;;;;;12.32;3.22;;;14.80;99.90;;;;;;4165095;28;20196;-87
2021/10/01 08:59:58;;;;;;;10.60;3.53;;;14.80;99.90;;;;;;4181796;28;20617;-87
2021/10/01 09:01:59;;;;;;;9.13;3.40;;;14.90;99.90;;;;;;4165071;28;20184;-89
2021/10/01 09:04:00;;;;;;;10.07;3.35;;;14.80;99.90;;;;;;4181497;28;20646;-89
2021/10/01 09:06:01;;;;;;;10.55;2.72;;;14.80;99.90;;;;;;4165051;28;20207;-88
2021/10/01 09:08:17;;;;;;;8.40;2.65;;;14.90;99.90;;;;;;4164950;28;20199;-91
2021/10/01 09:10:17;;;;;;;8.57;2.95;;;15.00;99.90;;;;;;4165045;28;20620;-86
2021/10/01 09:12:19;;;;;;;9.02;2.63;;;15.20;99.90;;;;;;4165095;28;20203;-88
2021/10/01 09:14:23;;;;;;;7.65;2.40;;;15.40;99.90;;;;;;4164851;28;20187;-87
2021/10/01 09:16:25;;;;;;;12.52;2.13;;;15.60;99.90;;;;;;4181043;28;20190;-91
2021/10/01 09:18:31;;;;;;;6.35;1.60;;;15.90;99.90;;;;;;4164614;28;20196;-90
2021/10/01 09:20:32;;;;;;;5.68;1.52;;;15.90;99.90;;;;;;4181337;28;20183;-87
2021/10/01 09:22:46;;;;;;;5.68;1.52;;;16.00;99.90;;;;;;4166197;28;20176;-89
2021/10/01 09:24:47;;;;;;;7.35;1.55;;;16.00;99.90;;;;;;4164782;28;20168;-87
2021/10/01 09:26:53;;;;;;;4.70;1.08;;;16.10;99.90;;;;;;4181231;28;20560;-88
2021/10/01 09:29:03;;;;;;;15.13;1.00;;;16.20;99.90;;;;;;4164754;28;20160;-88
2021/10/01 09:31:04;;;;;;;11.45;1.20;;;16.60;99.90;;;;;;4181261;28;20532;-88
2021/10/01 09:33:10;;;;;;;10.80;1.38;;;16.80;99.90;;;;;;4164778;28;20180;-89
2021/10/01 09:35:13;;;;;;;7.45;1.10;;;16.60;99.90;;;;;;4164710;28;20176;-88
2021/10/01 09:37:32;;;;;;;7.80;1.23;;;16.50;99.90;;;;;;4164307;28;20681;-88
2021/10/01 09:39:41;;;;;;;8.65;1.05;;;16.60;99.90;;;;;;4164788;28;20211;-90
2021/10/01 09:41:42;;;;;;;9.00;1.00;;;16.70;99.90;;;;;;4164771;28;20164;-88
2021/10/01 09:43:43;;;;;;;6.13;0.80;;;16.90;99.90;;;;;;4180893;28;20178;-87
2021/10/01 09:46:04;;;;;;;10.52;1.42;;;17.00;99.90;;;;;;4164446;28;20171;-87
2021/10/01 09:48:06;;;;;;;7.75;1.08;;;17.10;99.90;;;;;;4164490;28;20211;-88
2021/10/01 09:50:11;;;;;;;8.15;0.88;;;17.00;99.90;;;;;;4164730;28;20177;-88
2021/10/01 09:52:14;;;;;;;8.18;0.98;;;16.80;99.90;;;;;;4164207;28;20176;-89
2021/10/01 09:54:16;;;;;;;7.82;1.00;;;16.60;99.90;;;;;;4164348;28;20317;-90
2021/10/01 09:56:20;;;;;;;10.82;1.30;;;16.70;99.90;;;;;;4164630;28;20186;-89
2021/10/01 09:58:25;;;;;;;7.45;1.20;;;16.80;99.90;;;;;;4164366;28;20192;-89
2021/10/01 10:00:47;;;;;;;7.00;0.77;;;17.00;99.90;;;;;;4164544;28;20211;-88
2021/10/01 10:02:48;;;;;;;9.68;1.13;;;17.00;99.90;;;;;;4163936;28;20652;-88
2021/10/01 10:04:55;;;;;;;6.28;0.80;;;16.70;99.90;;;;;;4163664;28;20194;-89
2021/10/01 10:06:56;;;;;;;6.75;0.82;;;16.80;99.90;;;;;;4164171;28;20203;-88
2021/10/01 10:09:01;;;;;;;2.90;0.60;;;16.80;99.90;;;;;;4180759;28;20636;-88
2021/10/01 10:11:06;;;;;;;8.30;0.80;;;16.80;99.90;;;;;;4180646;28;20164;-90
2021/10/01 10:13:07;;;;;;;5.28;0.80;;;16.70;99.90;;;;;;4163979;28;20180;-88
2021/10/01 10:15:17;;;;;;;6.00;0.80;;;16.70;99.90;;;;;;4164209;28;20251;-88
2021/10/01 10:17:22;;;;;;;4.53;1.02;;;16.90;99.90;;;;;;4164347;28;20200;-89
2021/10/01 10:19:22;;;;;;;8.68;0.95;;;17.20;99.90;;;;;;4180609;28;20647;-91
2021/10/01 10:21:24;;;;;;;10.73;1.30;;;17.10;99.90;;;;;;4180591;28;20206;-89
2021/10/01 10:23:24;;;;;;;4.68;0.80;;;16.90;99.90;;;;;;4164391;28;20317;-89
2021/10/01 10:25:25;;;;;;;4.97;1.08;;;17.10;99.90;;;;;;4163944;28;20180;-89
2021/10/01 10:27:28;;;;;;;3.38;0.80;;;17.20;99.90;;;;;;4163851;28;20635;-88
2021/10/01 10:29:29;;;;;;;6.63;1.02;;;17.20;99.90;;;;;;4164080;28;20179;-88
2021/10/01 10:31:33;;;;;;;2.30;0.68;;;17.10;99.90;;;;;;4180452;28;20175;-89
2021/10/01 10:33:39;;;;;;;5.82;0.90;;;17.20;99.90;;;;;;4164207;28;20180;-90
2021/10/01 10:35:40;;;;;;;4.95;0.90;;;17.30;99.90;;;;;;4164130;28;20180;-90
2021/10/01 10:37:48;;;;;;;10.55;1.40;;;17.30;99.90;;;;;;4180471;28;20218;-90
2021/10/01 10:39:52;;;;;;;9.02;1.00;;;17.30;99.90;;;;;;4180673;28;20171;-90
2021/10/01 10:42:06;;;;;;;6.20;0.70;;;17.40;99.90;;;;;;4164179;28;20584;-89
2021/10/01 10:44:08;;;;;;;5.88;1.00;;;17.60;99.90;;;;;;4164148;28;20575;-90
2021/10/01 10:46:23;;;;;;;6.07;1.10;;;17.40;99.90;;;;;;4164015;28;20247;-91
2021/10/01 10:48:24;;;;;;;7.57;1.20;;;17.50;99.90;;;;;;4165432;28;20238;-89
2021/10/01 10:50:29;;;;;;;5.32;0.90;;;17.50;99.90;;;;;;4167665;28;20562;-88
2021/10/01 10:52:32;;;;;;;5.30;0.80;;;17.30;99.90;;;;;;4167360;28;20175;-89
2021/10/01 10:54:38;;;;;;;6.70;0.90;;;17.20;99.90;;;;;;4167159;28;20172;-88
2021/10/01 10:56:39;;;;;;;10.50;1.00;;;17.10;99.90;;;;;;4183349;28;20693;-90
2021/10/01 10:58:41;;;;;;;8.68;1.00;;;17.10;99.90;;;;;;4166794;28;20180;-87
2021/10/01 11:00:43;;;;;;;4.28;1.08;;;17.10;99.90;;;;;;4166916;28;20620;-91
2021/10/01 11:02:44;;;;;;;6.00;0.90;;;17.20;99.90;;;;;;4166658;28;20180;-91
2021/10/01 11:04:49;;;;;;;7.82;1.10;;;17.30;99.90;;;;;;4183060;28;20639;-89
2021/10/01 11:06:50;;;;;;;7.60;1.10;;;17.30;99.90;;;;;;4166779;28;20607;-90
2021/10/01 11:09:14;;;;;;;8.65;1.25;;;17.20;99.90;;;;;;4166781;28;20266;-89
2021/10/01 11:11:32;;;;;;;9.52;1.02;;;17.20;99.90;;;;;;4183144;28;20267;-89
2021/10/01 11:13:34;;;;;;;5.22;0.93;;;17.30;99.90;;;;;;4166718;28;20175;-90
2021/10/01 11:15:35;;;;;;;5.80;1.10;;;17.30;99.90;;;;;;4166899;28;20176;-90
2021/10/01 11:17:35;;;;;;;5.88;1.10;;;17.40;99.90;;;;;;4183361;28;20274;-90
2021/10/01 11:19:39;;;;;;;6.10;1.00;;;17.40;99.90;;;;;;4166468;28;20184;-88
2021/10/01 11:21:44;;;;;;;10.35;1.10;;;17.50;99.90;;;;;;4166710;28;20176;-89
2021/10/01 11:24:08;;;;;;;8.43;1.33;;;17.50;99.90;;;;;;4166767;28;20230;-90
2021/10/01 11:26:09;;;;;;;9.38;1.13;;;17.30;99.90;;;;;;4183170;28;20170;-89
2021/10/01 11:28:12;;;;;;;5.78;1.00;;;17.30;99.90;;;;;;4182844;28;20207;-92
2021/10/01 11:30:12;;;;;;;5.55;1.00;;;17.30;99.90;;;;;;4166453;28;20168;-91
2021/10/01 11:32:22;;;;;;;6.95;1.05;;;17.30;99.90;;;;;;4166325;28;20215;-89
2021/10/01 11:34:45;;;;;;;10.27;1.20;;;17.30;99.90;;;;;;4166442;28;20171;-91
2021/10/01 11:36:46;;;;;;;11.20;1.73;;;17.30;99.90;;;;;;4166356;28;20293;-90
2021/10/01 11:38:46;;;;;;;10.13;1.00;;;17.30;99.90;;;;;;4166168;28;20212;-91
2021/10/01 11:40:48;;;;;;;8.00;0.63;;;17.10;99.90;;;;;;4166575;28;20218;-90
2021/10/01 11:42:52;;;;;;;9.52;1.13;;;17.00;99.90;;;;;;4166227;28;20259;-90
2021/10/01 11:44:54;;;;;;;7.13;1.13;;;17.00;99.90;;;;;;4166251;28;20168;-91
2021/10/01 11:46:55;;;;;;;11.80;1.33;;;17.20;99.90;;;;;;4166368;28;20204;-92
2021/10/01 11:48:56;;;;;;;6.63;0.80;;;17.20;99.90;;;;;;4166202;28;20186;-89
2021/10/01 11:50:57;;;;;;;6.00;1.00;;;17.20;99.90;;;;;;4166280;28;20207;-90
2021/10/01 11:53:00;;;;;;;10.60;1.13;;;17.10;99.90;;;;;;4166022;28;20180;-89
2021/10/01 11:55:02;;;;;;;13.48;1.90;;;17.10;99.90;;;;;;4166035;28;20184;-89
2021/10/01 11:57:06;;;;;;;9.52;1.52;;;17.00;99.90;;;;;;4182595;28;20195;-90
2021/10/01 11:59:07;;;;;;;9.70;1.10;;;16.90;99.90;;;;;;4165852;28;20168;-88
2021/10/01 12:01:18;;;;;;;7.43;0.85;;;16.70;99.90;;;;;;4182433;28;20211;-90
2021/10/01 12:03:20;;;;;;;6.32;0.90;;;16.60;99.90;;;;;;4165962;28;20172;-90
2021/10/01 12:05:21;;;;;;;7.82;1.30;;;16.80;99.90;;;;;;4165909;28;20220;-87
2021/10/01 12:07:22;;;;;;;6.63;0.90;;;17.00;99.90;;;;;;4165698;28;20223;-89
2021/10/01 12:09:22;;;;;;;10.98;1.13;;;17.30;99.90;;;;;;4166039;28;20172;-88
2021/10/01 12:11:25;;;;;;;9.50;1.00;;;17.50;99.90;;;;;;4166017;28;20179;-90
2021/10/01 12:13:28;;;;;;;6.80;1.20;;;17.80;99.90;;;;;;4165710;28;20207;-92
2021/10/01 12:15:43;;;;;;;12.07;0.98;;;17.70;99.90;;;;;;4165803;28;20164;-88
2021/10/01 12:17:44;;;;;;;6.88;1.30;;;17.60;99.90;;;;;;4182039;28;20600;-91